Time;durP1;ratioP1;P1;durP2;ratioP2;P2;SDS_P1;SDS_P2;PMS_P1;PMS_P2;Temp;Humidity;BMP_temperature;BMP_pressure;BME280_temperature;BME280_humidity;BME280_pressure;Samples;Min_cycle;Max_cycle;Signal;HPM_P1;HPM_P2
2023/01/25 00:00:43;;;;;;;24.15;17.17;;;;;;;3.10;72.70;101903.41;5012332;28;20068;-80
2023/01/25 00:03:10;;;;;;;24.17;16.50;;;;;;;3.07;72.58;101902.50;5010057;28;20064;-80
2023/01/25 00:05:36;;;;;;;22.77;15.38;;;;;;;2.99;72.65;101892.91;5012184;28;20104;-80
2023/01/25 00:08:03;;;;;;;19.38;15.50;;;;;;;2.97;72.84;101906.75;5011872;28;20068;-80
2023/01/25 00:10:30;;;;;;;23.27;16.02;;;;;;;2.93;73.22;101894.56;5012454;28;20059;-81
2023/01/25 00:12:56;;;;;;;20.48;15.07;;;;;;;2.92;73.03;101890.22;5011793;28;20060;-80
2023/01/25 00:15:23;;;;;;;19.05;14.50;;;;;;;2.91;73.45;101889.34;5011324;28;20049;-80
2023/01/25 00:17:50;;;;;;;19.95;14.65;;;;;;;2.89;73.10;101891.09;5011895;28;20136;-80
2023/01/25 00:20:16;;;;;;;22.15;16.10;;;;;;;2.91;73.23;101888.50;5011716;28;20153;-81
2023/01/25 00:22:43;;;;;;;21.80;15.52;;;;;;;2.90;73.02;101887.63;5009572;28;20050;-81
2023/01/25 00:25:09;;;;;;;20.77;14.60;;;;;;;2.88;72.63;101873.75;5011760;28;20060;-80
2023/01/25 00:27:36;;;;;;;19.85;14.65;;;;;;;2.86;72.75;101875.44;5011442;28;20133;-80
2023/01/25 00:30:03;;;;;;;19.02;14.07;;;;;;;2.83;72.99;101876.28;5011978;28;20064;-80
2023/01/25 00:32:46;;;;;;;25.02;15.55;;;;;;;2.79;71.34;101873.63;5011788;28;20061;-80
2023/01/25 00:35:13;;;;;;;21.10;14.80;;;;;;;2.80;73.10;101878.00;5011857;28;20144;-80
2023/01/25 00:37:48;;;;;;;19.08;14.20;;;;;;;2.78;72.19;101875.38;5011379;28;20057;-80
2023/01/25 00:40:15;;;;;;;20.83;14.45;;;;;;;2.79;73.33;101868.41;5012113;28;20077;-80
2023/01/25 00:42:41;;;;;;;19.60;14.63;;;;;;;2.79;73.42;101871.91;5011588;28;20141;-80
2023/01/25 00:45:11;;;;;;;19.73;14.30;;;;;;;2.78;72.82;101871.88;5011786;28;20064;-80
2023/01/25 00:47:37;;;;;;;19.83;13.75;;;;;;;2.79;73.62;101866.69;5011218;28;20129;-80
2023/01/25 00:50:06;;;;;;;18.45;13.43;;;;;;;2.79;73.26;101874.50;5011746;28;20065;-81
2023/01/25 00:52:33;;;;;;;21.95;14.52;;;;;;;2.80;73.31;101878.00;5011578;28;20213;-80
2023/01/25 00:54:59;;;;;;;17.42;12.88;;;;;;;2.82;72.98;101876.25;5011418;28;20108;-79
2023/01/25 00:57:26;;;;;;;19.33;14.25;;;;;;;2.83;72.65;101867.59;5011480;28;20574;-80
2023/01/25 00:59:53;;;;;;;17.65;13.95;;;;;;;2.83;72.70;101871.09;5011355;28;20136;-80
2023/01/25 01:02:19;;;;;;;20.98;15.52;;;;;;;2.84;72.83;101861.56;5011303;28;20057;-80
2023/01/25 01:04:46;;;;;;;18.52;14.02;;;;;;;2.85;73.21;101869.34;5011023;28;20057;-81
2023/01/25 01:07:14;;;;;;;18.75;13.85;;;;;;;2.86;72.95;101857.22;5011449;28;20081;-80
2023/01/25 01:09:40;;;;;;;19.35;14.40;;;;;;;2.88;73.22;101859.84;4993478;28;20057;-80
2023/01/25 01:12:07;;;;;;;20.33;15.48;;;;;;;2.89;73.18;101853.78;5011386;28;20061;-80
2023/01/25 01:14:33;;;;;;;19.65;14.50;;;;;;;2.87;72.57;101853.75;5010996;28;20060;-80
2023/01/25 01:17:00;;;;;;;22.92;15.57;;;;;;;2.86;72.59;101852.91;5011119;28;20049;-80
2023/01/25 01:19:26;;;;;;;21.17;16.27;;;;;;;2.84;72.39;101849.41;5010822;28;20053;-80
2023/01/25 01:21:53;;;;;;;21.35;17.00;;;;;;;2.82;72.69;101858.94;5011361;28;20054;-80
2023/01/25 01:24:20;;;;;;;24.33;16.95;;;;;;;2.80;72.55;101851.97;5010927;28;20100;-80
2023/01/25 01:26:46;;;;;;;21.60;16.25;;;;;;;2.78;73.05;101851.09;5010758;28;20062;-80
2023/01/25 01:29:13;;;;;;;20.90;15.65;;;;;;;2.77;73.11;101846.75;5010702;28;20054;-80
2023/01/25 01:31:39;;;;;;;19.48;15.15;;;;;;;2.76;72.47;101855.41;4993468;28;20148;-80
2023/01/25 01:34:06;;;;;;;21.15;15.82;;;;;;;2.76;72.90;101848.47;5010869;28;20061;-80
2023/01/25 01:36:33;;;;;;;22.00;16.42;;;;;;;2.73;72.39;101846.69;5010130;28;20438;-79
2023/01/25 01:38:59;;;;;;;20.13;15.07;;;;;;;2.73;73.04;101838.91;5011117;28;20054;-80
2023/01/25 01:41:26;;;;;;;20.63;14.73;;;;;;;2.71;72.81;101838.03;5010638;28;20057;-80
2023/01/25 01:43:53;;;;;;;18.42;14.43;;;;;;;2.69;72.86;101837.13;5010820;28;20058;-80
2023/01/25 01:46:34;;;;;;;18.55;13.98;;;;;;;2.64;71.62;101849.22;5010368;28;20061;-80
2023/01/25 01:49:25;;;;;;;19.65;14.60;;;;;;;2.60;71.30;101847.44;5011067;28;20054;-80
2023/01/25 01:52:00;;;;;;;25.08;14.57;;;;;;;2.57;72.10;101850.88;5010464;28;20089;-80
2023/01/25 01:54:43;;;;;;;20.92;15.38;;;;;;;2.56;71.74;101853.47;5010701;28;20068;-80
2023/01/25 01:57:15;;;;;;;19.45;14.93;;;;;;;2.56;72.55;101843.06;4992943;28;20049;-80
2023/01/25 02:00:02;;;;;;;20.98;15.57;;;;;;;2.51;71.42;101850.84;5010705;28;20530;-81
2023/01/25 02:02:29;;;;;;;23.48;16.75;;;;;;;2.54;73.17;101844.78;5010540;28;20537;-81
2023/01/25 02:05:03;;;;;;;23.10;17.05;;;;;;;2.53;72.75;101832.63;5010630;28;20054;-80
2023/01/25 02:07:32;;;;;;;21.90;16.05;;;;;;;2.54;72.42;101847.41;5010148;28;20054;-80
2023/01/25 02:10:02;;;;;;;22.08;16.65;;;;;;;2.53;72.67;101849.09;5010791;28;20092;-80
2023/01/25 02:12:30;;;;;;;22.00;16.95;;;;;;;2.54;73.15;101844.78;5010326;28;20058;-81
2023/01/25 02:14:57;;;;;;;22.50;16.55;;;;;;;2.52;73.08;101847.38;4992910;28;20093;-80
2023/01/25 02:17:30;;;;;;;23.27;16.75;;;;;;;2.53;73.19;101853.44;5009939;28;20072;-80
2023/01/25 02:20:07;;;;;;;21.80;16.15;;;;;;;2.53;72.46;101853.44;4993186;28;20092;-80
2023/01/25 02:22:44;;;;;;;20.50;15.25;;;;;;;2.52;72.46;101846.50;5010377;28;20054;-81
2023/01/25 02:25:13;;;;;;;21.42;14.75;;;;;;;2.53;73.00;101837.81;5010601;28;20068;-80
2023/01/25 02:27:45;;;;;;;20.48;15.95;;;;;;;2.52;72.56;101843.88;5009986;28;20065;-80
2023/01/25 02:30:11;;;;;;;22.40;15.60;;;;;;;2.53;72.89;101843.03;4992899;28;20070;-80
2023/01/25 02:32:38;;;;;;;22.77;15.63;;;;;;;2.52;73.17;101847.38;5010061;28;20473;-80
2023/01/25 02:35:05;;;;;;;20.80;15.43;;;;;;;2.53;72.96;101837.81;5010366;28;20140;-80
2023/01/25 02:37:32;;;;;;;22.25;16.30;;;;;;;2.52;73.05;101834.38;5009898;28;20422;-81
2023/01/25 02:39:59;;;;;;;22.92;16.80;;;;;;;2.51;73.06;101829.16;5013927;28;20058;-80
2023/01/25 02:42:30;;;;;;;22.42;16.48;;;;;;;2.48;71.83;101827.41;5013934;28;20049;-80
2023/01/25 02:44:56;;;;;;;21.63;16.30;;;;;;;2.46;72.75;101822.19;5013879;28;20056;-80
2023/01/25 02:47:23;;;;;;;27.27;19.45;;;;;;;2.43;72.37;101816.94;5012466;28;20068;-81
2023/01/25 02:49:49;;;;;;;23.20;17.08;;;;;;;2.40;72.63;101816.03;5012909;28;20403;-79
2023/01/25 02:52:16;;;;;;;23.60;17.30;;;;;;;2.37;72.75;101810.81;4992743;28;20061;-80
2023/01/25 02:54:42;;;;;;;21.33;16.13;;;;;;;2.35;73.03;101810.78;5011526;28;20062;-81
2023/01/25 02:57:09;;;;;;;22.50;16.30;;;;;;;2.33;72.88;101808.16;5013550;28;20503;-80
2023/01/25 02:59:35;;;;;;;22.60;16.40;;;;;;;2.31;72.54;101811.59;5013254;28;20077;-80
2023/01/25 03:02:02;;;;;;;21.63;16.20;;;;;;;2.29;72.89;101798.63;5014123;28;20137;-79
2023/01/25 03:04:28;;;;;;;23.98;17.58;;;;;;;2.29;72.74;101792.53;5013450;28;20458;-82
2023/01/25 03:06:55;;;;;;;24.60;17.60;;;;;;;2.28;73.08;101785.63;5013423;28;20050;-81
2023/01/25 03:09:22;;;;;;;24.75;17.70;;;;;;;2.27;72.97;101783.84;5013248;28;20057;-80
2023/01/25 03:11:48;;;;;;;23.90;17.08;;;;;;;2.28;73.31;101777.81;5013757;28;20124;-79
2023/01/25 03:14:15;;;;;;;30.30;20.98;;;;;;;2.30;72.77;101784.78;4995521;28;20060;-80
2023/01/25 03:16:42;;;;;;;28.05;21.10;;;;;;;2.29;73.41;101782.16;4995624;28;20573;-80
2023/01/25 03:19:09;;;;;;;31.15;21.88;;;;;;;2.30;73.54;101776.09;5013088;28;21075;-80
2023/01/25 03:21:36;;;;;;;27.13;19.75;;;;;;;2.31;73.55;101770.03;5013448;28;20108;-81
2023/01/25 03:24:03;;;;;;;29.63;20.63;;;;;;;2.34;73.34;101759.66;5013308;28;20050;-80
2023/01/25 03:26:29;;;;;;;31.70;20.77;;;;;;;2.37;73.60;101764.03;4995503;28;20395;-80
2023/01/25 03:28:56;;;;;;;30.52;21.08;;;;;;;2.39;73.76;101757.13;5012955;28;20097;-80
2023/01/25 03:31:23;;;;;;;31.55;22.40;;;;;;;2.41;73.64;101748.50;4995282;28;20093;-80
2023/01/25 03:33:50;;;;;;;31.02;21.55;;;;;;;2.44;73.17;101745.88;4995847;28;20069;-80
2023/01/25 03:36:17;;;;;;;29.48;20.88;;;;;;;2.47;73.26;101747.69;5012535;28;20054;-82
2023/01/25 03:38:43;;;;;;;32.17;22.40;;;;;;;2.50;73.36;101741.63;4995562;28;20054;-80
2023/01/25 03:41:12;;;;;;;27.15;20.48;;;;;;;2.52;73.61;101747.69;4995057;28;20089;-80
2023/01/25 03:43:39;;;;;;;31.42;20.98;;;;;;;2.53;73.01;101744.22;5013103;28;20104;-80
2023/01/25 03:46:05;;;;;;;30.15;20.60;;;;;;;2.52;73.11;101751.19;5012515;28;20100;-80
2023/01/25 03:48:32;;;;;;;30.23;20.65;;;;;;;2.53;72.94;101746.84;5012825;28;20108;-80
2023/01/25 03:50:59;;;;;;;36.03;21.42;;;;;;;2.52;73.23;101747.69;5012369;28;20060;-81
2023/01/25 03:53:28;;;;;;;31.33;21.17;;;;;;;2.51;73.16;101749.44;5012715;28;20066;-80
2023/01/25 03:56:01;;;;;;;31.88;21.67;;;;;;;2.48;72.48;101747.66;4994666;28;20092;-80
2023/01/25 03:58:29;;;;;;;32.03;21.17;;;;;;;2.50;73.22;101741.63;5013022;28;20062;-81
2023/01/25 04:00:58;;;;;;;29.90;19.92;;;;;;;2.48;73.02;101731.22;4995078;28;20403;-80
2023/01/25 04:03:26;;;;;;;32.55;20.23;;;;;;;2.48;73.28;101729.47;5012639;28;20057;-80
2023/01/25 04:05:56;;;;;;;33.35;22.02;;;;;;;2.47;72.95;101726.88;4995437;28;20502;-79
2023/01/25 04:08:23;;;;;;;33.58;20.98;;;;;;;2.46;72.24;101725.13;5011957;28;20057;-79
2023/01/25 04:10:55;;;;;;;31.15;20.50;;;;;;;2.41;72.68;101722.50;5012390;28;20505;-80
2023/01/25 04:13:24;;;;;;;31.70;22.40;;;;;;;2.38;72.57;101709.47;5012157;28;20057;-80
2023/01/25 04:15:51;;;;;;;28.48;19.65;;;;;;;2.36;72.53;101711.19;5012295;28;20344;-79
2023/01/25 04:18:18;;;;;;;27.42;19.05;;;;;;;2.33;72.77;101709.41;5012150;28;20064;-80
2023/01/25 04:20:45;;;;;;;28.02;19.10;;;;;;;2.31;72.86;101710.25;5011367;28;20498;-80
2023/01/25 04:23:14;;;;;;;28.45;19.90;;;;;;;2.27;72.86;101708.47;4989409;23;20060;-80
2023/01/25 04:25:41;;;;;;;29.15;18.88;;;;;;;2.27;73.06;101716.28;5030801;28;20067;-77
2023/01/25 04:28:08;;;;;;;27.85;18.85;;;;;;;2.27;72.96;101708.47;5031309;28;20068;-82
2023/01/25 04:30:34;;;;;;;31.30;21.30;;;;;;;2.27;72.71;101711.09;5031670;28;20049;-80
2023/01/25 04:33:04;;;;;;;27.77;19.98;;;;;;;2.24;72.42;101711.94;5031632;28;20046;-78
2023/01/25 04:35:31;;;;;;;28.42;19.63;;;;;;;2.21;72.40;101715.38;5032272;28;20053;-78
2023/01/25 04:37:58;;;;;;;31.38;20.33;;;;;;;2.16;72.48;101718.78;5031146;28;20140;-79
2023/01/25 04:40:25;;;;;;;28.77;19.02;;;;;;;2.11;72.69;101721.34;5014304;28;20089;-81
2023/01/25 04:42:52;;;;;;;27.33;18.70;;;;;;;2.06;72.87;101712.63;5031481;28;20045;-78
2023/01/25 04:45:18;;;;;;;27.73;19.00;;;;;;;2.04;72.89;101711.75;5031210;28;20571;-80
2023/01/25 04:47:45;;;;;;;29.05;18.65;;;;;;;2.03;72.51;101708.28;5031516;28;20152;-81
2023/01/25 04:50:11;;;;;;;27.55;18.95;;;;;;;2.02;73.22;101703.06;5031253;28;20107;-78
2023/01/25 04:52:38;;;;;;;27.83;18.73;;;;;;;2.02;73.21;101700.47;5031654;28;20057;-78
2023/01/25 04:55:04;;;;;;;28.73;19.00;;;;;;;2.01;73.47;101703.91;5030876;28;20083;-80
2023/01/25 04:57:31;;;;;;;31.15;20.92;;;;;;;2.01;73.35;101704.78;5031481;28;20061;-77
2023/01/25 04:59:57;;;;;;;31.27;20.40;;;;;;;2.01;73.13;101698.72;5031285;28;20056;-79
2023/01/25 05:02:25;;;;;;;32.92;21.20;;;;;;;1.99;72.80;101697.84;5031083;28;20045;-79
2023/01/25 05:04:52;;;;;;;32.20;20.17;;;;;;;1.96;72.49;101698.69;5031237;28;20096;-80
2023/01/25 05:07:18;;;;;;;31.65;19.83;;;;;;;1.93;72.67;101707.31;5031267;28;20054;-78
2023/01/25 05:09:45;;;;;;;27.40;18.98;;;;;;;1.90;72.28;101709.88;5030985;28;20057;-79
2023/01/25 05:12:12;;;;;;;30.55;19.67;;;;;;;1.88;73.15;101711.59;5031098;28;20057;-78
2023/01/25 05:14:39;;;;;;;31.25;20.42;;;;;;;1.87;73.18;101714.16;5030964;28;20057;-77
2023/01/25 05:17:07;;;;;;;32.40;20.02;;;;;;;1.86;72.99;101709.84;5030811;28;20552;-80
2023/01/25 05:19:33;;;;;;;32.20;19.65;;;;;;;1.86;73.52;101702.91;5031205;28;20059;-78
2023/01/25 05:22:02;;;;;;;32.40;19.85;;;;;;;1.88;74.07;101698.59;5030784;28;20061;-79
2023/01/25 05:24:31;;;;;;;33.55;21.45;;;;;;;1.90;73.60;101696.88;5013498;28;20056;-82
2023/01/25 05:27:04;;;;;;;33.80;21.85;;;;;;;1.93;73.38;101696.03;5030353;28;20426;-77
2023/01/25 05:29:42;;;;;;;36.17;23.05;;;;;;;1.92;72.92;101699.50;5031291;28;20061;-77
2023/01/25 05:32:14;;;;;;;36.72;23.33;;;;;;;1.92;72.50;101690.00;5030762;28;20088;-79
2023/01/25 05:34:42;;;;;;;35.40;22.75;;;;;;;1.91;72.93;101693.44;5030770;28;20068;-81
2023/01/25 05:37:11;;;;;;;39.58;24.75;;;;;;;1.87;72.84;101691.66;5030164;28;20057;-78
2023/01/25 05:39:37;;;;;;;33.85;22.70;;;;;;;1.85;72.92;101684.69;5013124;28;20500;-81
2023/01/25 05:42:11;;;;;;;37.95;22.25;;;;;;;1.80;72.43;101697.66;5030640;28;20057;-79
2023/01/25 05:44:38;;;;;;;38.38;23.25;;;;;;;1.79;73.74;101688.97;5013319;28;20061;-81
2023/01/25 05:47:05;;;;;;;37.90;23.38;;;;;;;1.79;73.88;101688.97;5012699;28;20136;-78
2023/01/25 05:49:32;;;;;;;36.78;23.48;;;;;;;1.78;73.89;101682.06;5030868;28;20144;-80
2023/01/25 05:51:58;;;;;;;35.80;23.17;;;;;;;1.80;73.11;101687.25;5030604;28;20148;-80
2023/01/25 05:54:25;;;;;;;40.30;24.52;;;;;;;1.82;73.50;101682.94;5030731;28;20072;-78
2023/01/25 05:56:52;;;;;;;36.58;22.85;;;;;;;1.82;73.62;101695.94;5029818;28;20497;-82
2023/01/25 05:59:18;;;;;;;40.03;23.77;;;;;;;1.81;73.07;101692.47;5012843;28;20144;-81
2023/01/25 06:01:45;;;;;;;37.83;23.48;;;;;;;1.80;72.84;101685.53;5028449;28;20054;-80
2023/01/25 06:04:14;;;;;;;35.58;22.55;;;;;;;1.80;72.44;101697.66;5029814;28;20057;-80
2023/01/25 06:06:40;;;;;;;38.30;23.83;;;;;;;1.77;73.22;101695.91;5029408;28;20049;-83
2023/01/25 06:09:10;;;;;;;36.58;22.55;;;;;;;1.75;73.46;101696.75;5029665;28;20050;-83
2023/01/25 06:11:37;;;;;;;40.80;24.05;;;;;;;1.76;73.73;101699.31;5029920;28;20062;-81
2023/01/25 06:14:03;;;;;;;39.95;23.75;;;;;;;1.77;73.93;101697.59;5031523;28;20091;-81
2023/01/25 06:16:30;;;;;;;41.45;26.08;;;;;;;1.80;73.37;101697.66;5034008;28;20049;-81
2023/01/25 06:18:56;;;;;;;41.05;25.35;;;;;;;1.82;73.34;101703.72;5033420;28;20059;-80
2023/01/25 06:21:23;;;;;;;38.53;24.90;;;;;;;1.79;73.09;101696.78;5034259;28;20053;-80
2023/01/25 06:23:49;;;;;;;40.10;24.48;;;;;;;1.79;73.36;101701.97;5034115;28;20147;-81
2023/01/25 06:26:16;;;;;;;42.03;25.77;;;;;;;1.80;73.11;101702.84;5033939;28;20494;-80
2023/01/25 06:28:43;;;;;;;40.85;24.83;;;;;;;1.77;73.04;101695.00;5016047;28;20140;-80
2023/01/25 06:31:12;;;;;;;38.50;24.95;;;;;;;1.77;73.47;101695.00;5016759;28;20053;-82
2023/01/25 06:33:40;;;;;;;44.75;26.17;;;;;;;1.78;73.92;101683.75;5034103;28;20062;-81
2023/01/25 06:36:11;;;;;;;34.88;22.23;;;;;;;1.78;73.50;101684.66;5016285;28;20056;-81
2023/01/25 06:38:39;;;;;;;38.22;23.85;;;;;;;1.83;73.91;101682.09;5033525;28;20049;-81
2023/01/25 06:41:08;;;;;;;38.22;23.83;;;;;;;1.85;73.61;101685.59;5016280;28;20054;-81
2023/01/25 06:43:37;;;;;;;41.28;24.58;;;;;;;1.89;74.23;101682.16;5033487;28;20049;-81
2023/01/25 06:46:06;;;;;;;40.13;26.45;;;;;;;1.90;72.56;101678.72;5033959;28;20132;-80
2023/01/25 06:48:34;;;;;;;39.55;25.63;;;;;;;1.90;73.14;101676.09;5033634;28;20084;-81
2023/01/25 06:51:06;;;;;;;40.03;25.50;;;;;;;1.87;72.67;101670.88;5033650;28;20053;-81
2023/01/25 06:53:36;;;;;;;40.17;25.25;;;;;;;1.87;73.42;101675.22;5033432;28;20061;-80
2023/01/25 06:56:08;;;;;;;39.30;24.52;;;;;;;1.86;73.24;101674.34;5033764;28;20489;-78
2023/01/25 06:58:37;;;;;;;42.03;25.60;;;;;;;1.90;74.04;101670.03;5033453;28;20057;-78
2023/01/25 07:01:14;;;;;;;38.70;24.33;;;;;;;1.90;73.43;101673.50;5033318;28;20057;-79
2023/01/25 07:03:41;;;;;;;42.55;26.52;;;;;;;1.97;74.08;101669.25;5033714;28;20053;-79
2023/01/25 07:06:09;;;;;;;39.33;25.35;;;;;;;1.98;73.83;101672.72;5032916;28;20057;-78
2023/01/25 07:08:36;;;;;;;38.35;24.58;;;;;;;2.01;73.58;101677.94;5015838;28;20111;-78
2023/01/25 07:11:05;;;;;;;38.67;25.25;;;;;;;2.03;73.96;101673.63;5025255;28;20137;-77
2023/01/25 07:13:33;;;;;;;37.72;24.60;;;;;;;2.05;73.70;101675.38;5013794;28;20140;-80
2023/01/25 07:16:03;;;;;;;40.05;25.38;;;;;;;2.07;73.69;101678.00;5012618;28;20140;-79
2023/01/25 07:18:31;;;;;;;42.58;26.58;;;;;;;2.08;73.43;101671.94;5013558;28;20085;-77
2023/01/25 07:21:05;;;;;;;43.10;25.85;;;;;;;2.07;73.15;101671.09;5012981;28;20519;-80
2023/01/25 07:23:33;;;;;;;39.55;25.63;;;;;;;2.09;72.99;101665.88;5013514;28;20054;-78
2023/01/25 07:26:00;;;;;;;36.78;24.83;;;;;;;2.08;73.00;101664.16;5012563;28;20490;-79
2023/01/25 07:28:27;;;;;;;39.42;24.83;;;;;;;2.07;72.73;101667.63;5013401;28;20045;-78
2023/01/25 07:30:54;;;;;;;39.58;24.52;;;;;;;2.06;73.17;101658.09;5013243;28;20061;-79
2023/01/25 07:33:20;;;;;;;35.83;22.88;;;;;;;2.04;73.32;101657.19;5013194;28;20399;-78
2023/01/25 07:35:49;;;;;;;34.85;22.42;;;;;;;2.03;73.26;101648.53;5013066;28;20081;-78
2023/01/25 07:38:16;;;;;;;39.92;25.80;;;;;;;2.03;73.57;101645.06;4995753;28;20104;-79
2023/01/25 07:40:43;;;;;;;44.53;26.63;;;;;;;2.05;73.44;101648.53;4995573;28;20149;-77
2023/01/25 07:43:09;;;;;;;39.90;25.85;;;;;;;2.05;73.22;101653.72;5013298;28;20054;-78
2023/01/25 07:45:36;;;;;;;38.67;25.58;;;;;;;2.05;73.38;101644.22;5012740;28;20046;-78
2023/01/25 07:48:09;;;;;;;42.88;28.13;;;;;;;2.06;72.75;101645.94;4995438;28;20058;-78
2023/01/25 07:50:36;;;;;;;39.08;25.42;;;;;;;2.10;73.08;101651.19;4995671;28;20509;-77
2023/01/25 07:53:02;;;;;;;40.30;24.90;;;;;;;2.10;73.37;101646.88;5012716;28;20430;-78
2023/01/25 07:55:29;;;;;;;35.83;23.88;;;;;;;2.13;73.21;101656.41;4995215;28;20145;-78
2023/01/25 07:57:56;;;;;;;37.80;24.30;;;;;;;2.13;73.26;101652.06;4994846;28;20093;-78
2023/01/25 08:00:23;;;;;;;39.30;25.73;;;;;;;2.16;73.19;101640.84;5012749;28;20056;-80
2023/01/25 08:02:51;;;;;;;44.75;27.48;;;;;;;2.16;72.95;101636.50;4995212;28;20054;-79
2023/01/25 08:05:18;;;;;;;42.38;26.95;;;;;;;2.14;72.58;101633.06;4995117;28;20518;-78
2023/01/25 08:07:45;;;;;;;46.97;28.77;;;;;;;2.11;72.48;101627.81;5012176;28;20050;-78
2023/01/25 08:10:12;;;;;;;40.17;25.23;;;;;;;2.07;72.31;101629.53;5012693;28;20285;-80
2023/01/25 08:12:38;;;;;;;44.83;26.95;;;;;;;2.03;72.82;101630.34;5012028;28;20049;-78
2023/01/25 08:15:05;;;;;;;42.53;27.05;;;;;;;1.98;72.05;101632.03;5012292;28;20522;-77
2023/01/25 08:17:32;;;;;;;44.78;27.20;;;;;;;1.93;71.92;101629.41;5012024;28;20061;-78
2023/01/25 08:20:00;;;;;;;40.35;24.73;;;;;;;1.87;72.87;101636.25;5012659;28;20064;-78
2023/01/25 08:22:27;;;;;;;46.95;28.10;;;;;;;1.82;72.58;101638.81;5011811;28;20104;-79
2023/01/25 08:24:53;;;;;;;46.45;27.90;;;;;;;1.77;72.67;101633.59;5012321;28;20049;-78
2023/01/25 08:27:20;;;;;;;39.95;25.23;;;;;;;1.76;73.20;101633.56;5011508;28;20092;-78
2023/01/25 08:29:49;;;;;;;43.55;26.35;;;;;;;1.76;73.50;101637.00;4994785;28;20573;-79
2023/01/25 08:32:16;;;;;;;41.63;25.00;;;;;;;1.79;73.96;101643.97;5012423;28;20108;-78
2023/01/25 08:34:42;;;;;;;42.30;25.98;;;;;;;1.82;73.87;101638.81;5011783;28;20062;-80
2023/01/25 08:37:09;;;;;;;45.45;27.40;;;;;;;1.84;73.52;101629.31;4993397;28;20056;-79
2023/01/25 08:39:35;;;;;;;44.75;28.48;;;;;;;1.88;73.19;101628.50;5011627;28;20053;-78
2023/01/25 08:42:02;;;;;;;45.85;28.48;;;;;;;1.88;72.99;101631.09;5011872;28;20141;-81
2023/01/25 08:44:28;;;;;;;44.92;27.67;;;;;;;1.88;73.35;101623.28;5011765;28;20418;-78
2023/01/25 08:46:56;;;;;;;47.75;26.73;;;;;;;1.88;73.24;101620.69;5011616;28;20092;-78
2023/01/25 08:49:23;;;;;;;44.15;27.83;;;;;;;1.88;73.50;101625.91;5011607;28;20062;-77
2023/01/25 08:51:49;;;;;;;44.70;27.35;;;;;;;1.88;72.89;101622.41;5011789;28;20096;-77
2023/01/25 08:54:16;;;;;;;45.00;26.30;;;;;;;1.86;73.67;101619.78;5011463;28;20049;-78
2023/01/25 08:56:43;;;;;;;44.78;26.30;;;;;;;1.84;72.96;101621.53;5011349;28;20144;-79
2023/01/25 08:59:10;;;;;;;43.42;26.73;;;;;;;1.83;72.49;101614.56;4994067;28;20153;-78
2023/01/25 09:01:37;;;;;;;42.53;25.50;;;;;;;1.81;73.20;101611.97;5011569;28;20503;-79
2023/01/25 09:04:04;;;;;;;42.97;25.88;;;;;;;1.83;73.27;101611.97;5011390;28;20061;-79
2023/01/25 09:06:32;;;;;;;44.55;26.52;;;;;;;1.82;73.37;101603.31;5011330;28;20053;-78
2023/01/25 09:09:03;;;;;;;43.33;26.17;;;;;;;1.84;73.38;101598.16;5010993;28;20485;-80
2023/01/25 09:11:32;;;;;;;43.25;26.67;;;;;;;1.84;72.86;101592.97;5011762;28;20057;-78
2023/01/25 09:13:59;;;;;;;44.50;27.08;;;;;;;1.86;73.14;101595.56;4993725;28;20054;-80
2023/01/25 09:16:29;;;;;;;45.15;28.25;;;;;;;1.85;73.18;101589.50;5010762;28;20512;-78
2023/01/25 09:18:58;;;;;;;43.80;27.25;;;;;;;1.84;72.96;101587.78;4993725;28;20465;-77
2023/01/25 09:21:25;;;;;;;46.47;26.98;;;;;;;1.83;72.85;101591.19;4993430;28;20061;-80
2023/01/25 09:23:53;;;;;;;46.15;28.33;;;;;;;1.84;73.63;101589.47;5011191;28;20065;-80
2023/01/25 09:26:36;;;;;;;;;;;;;;;1.82;71.53;101589.47;4995947;28;20057;-79
2023/01/25 09:29:04;;;;;;;41.95;24.60;;;;;;;1.83;72.81;101580.81;4993998;28;19978;-79
2023/01/25 09:31:30;;;;;;;47.58;26.20;;;;;;;1.79;73.22;101579.91;5010868;28;20096;-78
2023/01/25 09:33:57;;;;;;;45.70;26.60;;;;;;;1.78;73.30;101579.91;4993645;28;20058;-80
2023/01/25 09:36:24;;;;;;;44.53;26.50;;;;;;;1.77;73.33;101584.25;5010460;28;20082;-79
2023/01/25 09:38:51;;;;;;;44.15;26.23;;;;;;;1.78;73.98;101566.91;4993625;28;20054;-79
2023/01/25 09:41:56;;;;;;;46.22;27.63;;;;;;;1.79;72.51;101572.13;5010847;28;20064;-78
2023/01/25 09:44:53;;;;;;;45.90;27.67;;;;;;;1.82;72.34;101571.28;5011079;28;20061;-79
2023/01/25 09:47:32;;;;;;;46.80;27.98;;;;;;;1.83;72.71;101575.63;5010516;28;20092;-77
2023/01/25 09:50:05;;;;;;;47.65;28.25;;;;;;;1.84;73.00;101577.38;5011005;28;20056;-77
2023/01/25 09:52:52;;;;;;;45.55;25.75;;;;;;;1.78;72.11;101570.41;5010623;28;20068;-78
2023/01/25 09:55:23;;;;;;;44.97;25.70;;;;;;;1.80;73.11;101570.41;5010972;28;20094;-78
2023/01/25 09:57:52;;;;;;;45.50;26.85;;;;;;;1.81;73.53;101566.97;5009733;28;20569;-77
2023/01/25 10:00:26;;;;;;;41.17;25.38;;;;;;;1.81;73.05;101566.97;5010954;28;20056;-77
2023/01/25 10:03:16;;;;;;;46.60;26.73;;;;;;;1.79;72.48;101561.75;4993001;28;20181;-80
2023/01/25 10:05:45;;;;;;;43.45;26.98;;;;;;;1.84;73.49;101559.19;5010462;28;20856;-77
2023/01/25 10:08:19;;;;;;;47.47;28.90;;;;;;;1.87;73.74;101564.41;5010393;28;20149;-79
2023/01/25 10:10:49;;;;;;;46.15;28.52;;;;;;;1.86;73.22;101556.63;5011037;28;20080;-78
2023/01/25 10:13:23;;;;;;;48.90;28.80;;;;;;;1.86;73.14;101559.22;5010584;28;20050;-78
2023/01/25 10:15:53;;;;;;;50.30;28.60;;;;;;;1.87;73.59;101556.59;5010536;28;20054;-77
2023/01/25 10:18:34;;;;;;;47.33;29.45;;;;;;;1.86;72.22;101554.88;4992965;28;20049;-77
2023/01/25 10:21:06;;;;;;;50.92;30.65;;;;;;;1.87;73.06;101550.56;5010813;28;20104;-77
2023/01/25 10:24:01;;;;;;;46.90;29.00;;;;;;;1.81;71.84;101547.06;5176092;23;20710;-80
2023/01/25 10:26:34;;;;;;;51.33;28.67;;;;;;;1.82;72.79;101540.13;5029961;28;20054;-80
2023/01/25 10:29:20;;;;;;;49.70;30.10;;;;;;;1.79;72.95;101535.78;5030264;28;20103;-80
2023/01/25 10:31:52;;;;;;;48.65;27.98;;;;;;;1.76;72.74;101538.34;5030461;28;20049;-80
2023/01/25 10:34:20;;;;;;;48.45;27.38;;;;;;;1.75;73.75;101536.59;5030108;28;20107;-79
2023/01/25 10:36:59;;;;;;;47.35;28.38;;;;;;;1.74;72.71;101528.81;5012385;28;20482;-80
2023/01/25 10:39:28;;;;;;;47.88;29.05;;;;;;;1.77;73.17;101524.53;5030044;28;20457;-79
2023/01/25 10:42:07;;;;;;;51.45;29.67;;;;;;;1.76;72.61;101527.09;5030413;28;20107;-80
2023/01/25 10:44:34;;;;;;;46.17;27.73;;;;;;;1.80;73.86;101523.69;5029944;28;20091;-80
2023/01/25 10:47:23;;;;;;;52.15;29.30;;;;;;;1.75;72.05;101526.22;5012259;28;20049;-80
2023/01/25 10:49:52;;;;;;;45.65;26.67;;;;;;;1.78;73.14;101512.41;5030458;28;20072;-79
2023/01/25 10:52:24;;;;;;;45.53;27.52;;;;;;;1.79;73.35;101519.31;5030344;28;20061;-79
2023/01/25 10:55:27;;;;;;;47.90;27.45;;;;;;;1.79;72.99;101507.22;5029925;28;20053;-80
2023/01/25 10:57:58;;;;;;;44.67;27.33;;;;;;;1.86;73.37;101496.91;4949073;29;20047;-79
2023/01/25 11:00:29;;;;;;;47.20;27.42;;;;;;;1.89;73.75;101494.31;5019376;28;20291;-79
2023/01/25 11:02:56;;;;;;;49.80;27.98;;;;;;;1.92;74.06;101487.41;5033332;28;20049;-80
2023/01/25 11:05:28;;;;;;;49.17;28.67;;;;;;;1.95;73.30;101478.78;5033467;28;20057;-80
2023/01/25 11:07:56;;;;;;;50.75;30.77;;;;;;;1.97;73.25;101478.78;5033404;28;20060;-80
2023/01/25 11:10:33;;;;;;;46.08;28.50;;;;;;;1.99;73.29;101475.34;5033369;28;20469;-80
2023/01/25 11:13:15;;;;;;;48.63;28.35;;;;;;;1.95;72.44;101469.25;5033242;28;20049;-80
2023/01/25 11:15:43;;;;;;;46.10;26.50;;;;;;;2.00;73.74;101455.41;5033272;28;20049;-80
2023/01/25 11:18:32;;;;;;;48.67;28.65;;;;;;;1.99;72.18;101454.56;5032857;28;20045;-80
2023/01/25 11:21:05;;;;;;;46.50;28.63;;;;;;;2.02;72.89;101451.13;5032385;28;20057;-80
2023/01/25 11:23:32;;;;;;;49.63;28.15;;;;;;;2.02;73.37;101440.72;5032980;28;20448;-80
2023/01/25 11:26:12;;;;;;;46.45;27.60;;;;;;;1.99;72.36;101438.09;5015472;28;20494;-80